Time;durP1;ratioP1;P1;durP2;ratioP2;P2;SDS_P1;SDS_P2;PMS_P1;PMS_P2;Temp;Humidity;BMP_temperature;BMP_pressure;BME280_temperature;BME280_humidity;BME280_pressure;Samples;Min_cycle;Max_cycle;Signal;HPM_P1;HPM_P2
2023/12/11 00:01:44;;;;;;;4.22;0.40;;;8.50;99.90;;;;;;5014751;28;20021;-90
2023/12/11 00:04:11;;;;;;;0.60;0.40;;;8.50;99.90;;;;;;5014595;28;20025;-90
2023/12/11 00:06:37;;;;;;;2.67;0.80;;;8.50;99.90;;;;;;5015646;28;20030;-91
2023/12/11 00:09:03;;;;;;;1.85;0.65;;;8.50;99.90;;;;;;5015720;28;20495;-90
2023/12/11 00:11:28;;;;;;;4.40;1.20;;;8.50;99.90;;;;;;5017518;28;20522;-90
2023/12/11 00:13:54;;;;;;;3.15;1.25;;;8.40;99.90;;;;;;5016392;28;20112;-90
2023/12/11 00:16:20;;;;;;;1.85;1.00;;;8.50;99.90;;;;;;5017245;28;20475;-91
2023/12/11 00:18:46;;;;;;;2.42;0.77;;;8.40;99.90;;;;;;5014563;28;20024;-91
2023/12/11 00:21:12;;;;;;;1.80;0.80;;;8.40;99.90;;;;;;5014535;28;20025;-90
2023/12/11 00:23:37;;;;;;;1.48;0.50;;;8.40;99.90;;;;;;5015308;28;20536;-90
2023/12/11 00:26:03;;;;;;;5.45;0.70;;;8.40;99.90;;;;;;5014726;28;20169;-90
2023/12/11 00:28:29;;;;;;;3.95;0.57;;;8.40;99.90;;;;;;5014484;28;20032;-89
2023/12/11 00:30:55;;;;;;;2.97;0.60;;;8.40;99.90;;;;;;5014877;28;20025;-89
2023/12/11 00:33:20;;;;;;;4.90;0.63;;;8.40;99.90;;;;;;5013303;28;20040;-90
2023/12/11 00:35:46;;;;;;;4.20;0.65;;;8.40;99.90;;;;;;5013126;28;21294;-92
2023/12/11 00:38:12;;;;;;;1.48;0.60;;;8.40;99.90;;;;;;5014247;28;20040;-89
2023/12/11 00:40:38;;;;;;;1.60;0.57;;;8.40;99.90;;;;;;5013776;28;20497;-90
2023/12/11 00:43:04;;;;;;;2.78;0.57;;;8.40;99.90;;;;;;5013855;28;20033;-90
2023/12/11 00:45:29;;;;;;;1.63;0.60;;;8.40;99.90;;;;;;5013917;28;20666;-90
2023/12/11 00:47:55;;;;;;;1.58;0.38;;;8.40;99.90;;;;;;5013703;28;20033;-89
2023/12/11 00:50:21;;;;;;;5.45;0.90;;;8.40;99.90;;;;;;5013602;28;20079;-89
2023/12/11 00:52:46;;;;;;;3.75;0.95;;;8.40;99.90;;;;;;5014643;28;20034;-91
2023/12/11 00:55:12;;;;;;;6.50;1.38;;;8.50;99.90;;;;;;5014565;28;20095;-91
2023/12/11 00:57:38;;;;;;;5.95;1.02;;;8.50;99.90;;;;;;5014533;28;20486;-88
2023/12/11 01:00:05;;;;;;;5.78;1.38;;;8.50;99.90;;;;;;5016581;28;20109;-89
2023/12/11 01:02:31;;;;;;;6.70;1.15;;;8.50;99.90;;;;;;5014964;28;20020;-90
2023/12/11 01:04:57;;;;;;;8.25;1.10;;;8.50;99.90;;;;;;5019134;28;20053;-89
2023/12/11 01:07:23;;;;;;;10.50;1.88;;;8.60;99.90;;;;;;5027481;28;20030;-89
2023/12/11 01:09:49;;;;;;;4.47;1.60;;;8.60;99.90;;;;;;5022009;28;20512;-90
2023/12/11 01:12:15;;;;;;;9.98;2.00;;;8.60;99.90;;;;;;5015270;28;20139;-90
2023/12/11 01:14:40;;;;;;;12.40;1.75;;;8.60;99.90;;;;;;5016310;28;20040;-89
2023/12/11 01:17:06;;;;;;;11.38;1.70;;;8.60;99.90;;;;;;5015866;28;20360;-89
2023/12/11 01:19:32;;;;;;;9.75;1.90;;;8.60;99.90;;;;;;5015445;28;20056;-89
2023/12/11 01:21:57;;;;;;;13.38;1.65;;;8.60;99.90;;;;;;5015546;28;20021;-89
2023/12/11 01:24:24;;;;;;;9.02;1.42;;;8.70;99.90;;;;;;5014951;28;20099;-90
2023/12/11 01:26:51;;;;;;;12.95;1.67;;;8.70;99.90;;;;;;5015477;28;20071;-90
2023/12/11 01:29:16;;;;;;;17.08;2.33;;;8.70;99.90;;;;;;5015492;28;20402;-90
2023/12/11 01:31:42;;;;;;;9.45;1.73;;;8.70;99.90;;;;;;5015165;28;20095;-91
2023/12/11 01:34:08;;;;;;;6.82;1.13;;;8.70;99.90;;;;;;5014239;28;20026;-90
2023/12/11 01:36:33;;;;;;;10.93;1.50;;;8.70;99.90;;;;;;5014786;28;20085;-91
2023/12/11 01:38:59;;;;;;;6.65;1.23;;;8.70;99.90;;;;;;5015176;28;20022;-90
2023/12/11 01:41:25;;;;;;;7.90;1.20;;;8.70;99.90;;;;;;5014692;28;20025;-89
2023/12/11 01:43:55;;;;;;;8.27;1.25;;;8.80;99.90;;;;;;5014467;28;20411;-89
2023/12/11 01:46:22;;;;;;;9.32;1.30;;;8.80;99.90;;;;;;5014220;28;20078;-90
2023/12/11 01:48:49;;;;;;;8.80;1.50;;;8.80;99.90;;;;;;5014548;28;20029;-89
2023/12/11 01:51:16;;;;;;;7.55;1.00;;;8.80;99.90;;;;;;5015580;28;20025;-91
2023/12/11 01:53:44;;;;;;;10.43;1.15;;;8.80;99.90;;;;;;5014403;28;20022;-91
2023/12/11 01:56:10;;;;;;;4.15;0.98;;;8.80;99.90;;;;;;5015343;28;20056;-89
2023/12/11 01:58:36;;;;;;;2.88;1.20;;;8.80;99.90;;;;;;5015246;28;20530;-90
2023/12/11 02:01:01;;;;;;;7.78;1.60;;;8.80;99.90;;;;;;5020652;28;20029;-88
2023/12/11 02:03:28;;;;;;;11.25;1.90;;;8.70;99.90;;;;;;5025384;28;20080;-88
2023/12/11 02:05:53;;;;;;;10.93;2.47;;;8.70;99.90;;;;;;5020144;28;20030;-90
2023/12/11 02:08:19;;;;;;;7.32;1.70;;;8.70;99.90;;;;;;5013884;28;20028;-90
2023/12/11 02:10:45;;;;;;;6.97;1.42;;;8.70;99.90;;;;;;5014251;28;20029;-91
2023/12/11 02:13:11;;;;;;;7.47;1.83;;;8.60;99.90;;;;;;5013870;28;20071;-90
2023/12/11 02:15:46;;;;;;;4.85;1.45;;;8.60;99.90;;;;;;5013728;28;20079;-90
2023/12/11 02:18:14;;;;;;;6.50;2.00;;;8.60;99.90;;;;;;5013804;28;20112;-91
2023/12/11 02:20:40;;;;;;;8.07;1.83;;;8.60;99.90;;;;;;5013471;28;20029;-92
2023/12/11 02:23:17;;;;;;;11.80;1.77;;;8.50;99.90;;;;;;5014020;28;20108;-92
2023/12/11 02:25:48;;;;;;;5.93;1.70;;;8.50;99.90;;;;;;5014051;28;20018;-91
2023/12/11 02:28:13;;;;;;;13.73;2.60;;;8.50;99.90;;;;;;5013594;28;20113;-92
2023/12/11 02:30:53;;;;;;;10.63;1.75;;;8.40;99.90;;;;;;5013343;28;20072;-91
2023/12/11 02:33:19;;;;;;;5.55;1.40;;;8.40;99.90;;;;;;5013582;28;20025;-91
2023/12/11 02:35:44;;;;;;;10.98;1.20;;;8.40;99.90;;;;;;5013087;28;20486;-90
2023/12/11 02:38:10;;;;;;;4.88;1.00;;;8.40;99.90;;;;;;5013374;28;20040;-90
2023/12/11 02:40:36;;;;;;;5.80;1.10;;;8.40;99.90;;;;;;5013166;28;20021;-90
2023/12/11 02:43:02;;;;;;;5.55;0.90;;;8.40;99.90;;;;;;5030909;28;20378;-90
2023/12/11 02:45:28;;;;;;;10.20;1.98;;;8.30;99.90;;;;;;5013401;28;20024;-89
2023/12/11 02:48:02;;;;;;;5.50;1.00;;;8.30;99.90;;;;;;5011676;28;20112;-89
2023/12/11 02:50:31;;;;;;;6.55;1.35;;;8.30;99.90;;;;;;5013315;28;20021;-90
2023/12/11 02:52:58;;;;;;;7.88;1.38;;;8.20;99.90;;;;;;5012589;28;20025;-90
2023/12/11 02:55:24;;;;;;;4.65;1.10;;;8.20;99.90;;;;;;5012564;28;20060;-91
2023/12/11 02:57:51;;;;;;;6.57;1.58;;;8.20;99.90;;;;;;5013069;28;20118;-90
2023/12/11 03:00:17;;;;;;;11.82;1.20;;;8.20;99.90;;;;;;5013331;28;20029;-90
2023/12/11 03:02:43;;;;;;;6.80;1.50;;;8.10;99.90;;;;;;5013250;28;20100;-90
2023/12/11 03:05:08;;;;;;;6.32;1.30;;;8.10;99.90;;;;;;5013287;28;20029;-90
2023/12/11 03:07:34;;;;;;;9.27;1.60;;;8.10;99.90;;;;;;5013948;28;20395;-91
2023/12/11 03:10:00;;;;;;;5.53;1.10;;;8.10;99.90;;;;;;5014106;28;20041;-91
2023/12/11 03:12:26;;;;;;;6.53;1.00;;;8.10;99.90;;;;;;5014174;28;20466;-91
2023/12/11 03:14:51;;;;;;;5.45;1.00;;;8.00;99.90;;;;;;5017305;28;20041;-92
2023/12/11 03:17:17;;;;;;;5.25;1.00;;;8.00;99.90;;;;;;5017301;28;20056;-90
2023/12/11 03:19:43;;;;;;;2.13;0.85;;;8.00;99.90;;;;;;5017446;28;20048;-91
2023/12/11 03:22:08;;;;;;;5.97;1.08;;;7.90;99.90;;;;;;5017259;28;20905;-90
2023/12/11 03:24:34;;;;;;;7.53;1.30;;;7.90;99.90;;;;;;5017103;28;20443;-90
2023/12/11 03:27:00;;;;;;;5.18;1.02;;;7.90;99.90;;;;;;5016929;28;20029;-91
2023/12/11 03:29:26;;;;;;;6.15;1.23;;;7.90;99.90;;;;;;5016574;28;20391;-90
2023/12/11 03:31:51;;;;;;;6.60;1.80;;;7.90;99.90;;;;;;5017966;28;20036;-90
2023/12/11 03:34:17;;;;;;;11.43;1.73;;;7.90;99.90;;;;;;5019016;28;20025;-91
2023/12/11 03:36:43;;;;;;;6.80;1.50;;;7.90;99.90;;;;;;5019433;28;20572;-90
2023/12/11 03:39:09;;;;;;;9.73;3.10;;;7.90;99.90;;;;;;5026199;28;20097;-91
2023/12/11 03:41:35;;;;;;;13.38;3.25;;;7.80;99.90;;;;;;5034900;28;20033;-90
2023/12/11 03:44:00;;;;;;;20.98;3.80;;;7.80;99.90;;;;;;5038340;28;20010;-91
2023/12/11 03:46:26;;;;;;;14.95;3.45;;;7.80;99.90;;;;;;5022880;28;20487;-90
2023/12/11 03:48:52;;;;;;;14.45;2.30;;;7.70;99.90;;;;;;5017134;28;20040;-91
2023/12/11 03:51:17;;;;;;;15.80;3.03;;;7.70;99.90;;;;;;5016597;28;20029;-91
2023/12/11 03:53:43;;;;;;;14.13;2.05;;;7.70;99.90;;;;;;5016944;28;20018;-91
2023/12/11 03:56:09;;;;;;;10.43;1.95;;;7.70;99.90;;;;;;5017412;28;20064;-92
2023/12/11 03:58:34;;;;;;;9.77;2.13;;;7.70;99.90;;;;;;5018329;28;20028;-92
2023/12/11 04:01:00;;;;;;;10.20;2.72;;;7.60;99.90;;;;;;5018271;28;20026;-91
2023/12/11 04:03:26;;;;;;;21.73;3.00;;;7.60;99.90;;;;;;5017105;28;20057;-93
2023/12/11 04:05:52;;;;;;;19.13;2.20;;;7.60;99.90;;;;;;5016506;28;20044;-92
2023/12/11 04:08:17;;;;;;;16.73;2.17;;;7.60;99.90;;;;;;5016059;28;20036;-90
2023/12/11 04:10:43;;;;;;;6.35;2.28;;;7.50;99.90;;;;;;5016012;28;20041;-91
2023/12/11 04:13:09;;;;;;;12.05;2.00;;;7.50;99.90;;;;;;5015229;28;20029;-93
2023/12/11 04:15:34;;;;;;;16.83;3.03;;;7.50;99.90;;;;;;5015868;28;20041;-92
2023/12/11 04:18:00;;;;;;;11.75;2.13;;;7.50;99.90;;;;;;5015068;28;20120;-91
2023/12/11 04:20:26;;;;;;;16.40;2.22;;;7.50;99.90;;;;;;5016127;28;20102;-91
2023/12/11 04:22:51;;;;;;;19.23;2.92;;;7.50;99.90;;;;;;5015620;28;20022;-91
2023/12/11 04:25:17;;;;;;;9.52;1.90;;;7.50;99.90;;;;;;5014430;28;20083;-92
2023/12/11 04:27:43;;;;;;;14.77;2.53;;;7.50;99.90;;;;;;5015888;28;20094;-91
2023/12/11 04:30:09;;;;;;;15.15;2.33;;;7.50;99.90;;;;;;5015932;28;20454;-92
2023/12/11 04:32:35;;;;;;;11.52;2.00;;;7.50;99.90;;;;;;5015609;28;20483;-92
2023/12/11 04:35:00;;;;;;;10.93;2.38;;;7.50;99.90;;;;;;5015721;28;20091;-91
2023/12/11 04:37:26;;;;;;;19.67;2.42;;;7.60;99.90;;;;;;5015770;28;20095;-93
2023/12/11 04:39:52;;;;;;;13.70;2.10;;;7.60;99.90;;;;;;5015789;28;20032;-91
2023/12/11 04:42:18;;;;;;;11.13;2.00;;;7.50;99.90;;;;;;5015359;28;20301;-92
2023/12/11 04:44:43;;;;;;;10.10;2.72;;;7.60;99.90;;;;;;5020429;28;20040;-89
2023/12/11 04:47:09;;;;;;;14.95;1.98;;;7.60;99.90;;;;;;5021441;28;20098;-91
2023/12/11 04:49:35;;;;;;;20.38;2.50;;;7.60;99.90;;;;;;5018811;28;20021;-90
2023/12/11 04:52:01;;;;;;;12.35;2.00;;;7.60;99.90;;;;;;5016632;28;20037;-90
2023/12/11 04:54:29;;;;;;;9.13;1.48;;;7.60;99.90;;;;;;5015194;28;20060;-89
2023/12/11 04:56:54;;;;;;;9.45;1.60;;;7.60;99.90;;;;;;5014669;28;20021;-90
2023/12/11 04:59:20;;;;;;;14.43;1.60;;;7.60;99.90;;;;;;4998734;28;20113;-89
2023/12/11 05:01:46;;;;;;;12.45;2.00;;;7.60;99.90;;;;;;5014745;28;20024;-90
2023/12/11 05:04:11;;;;;;;11.23;2.05;;;7.60;99.90;;;;;;5014971;28;20104;-90
2023/12/11 05:06:37;;;;;;;9.68;2.33;;;7.60;99.90;;;;;;5015469;28;20026;-89
2023/12/11 05:09:03;;;;;;;10.48;1.25;;;7.60;99.90;;;;;;5015217;28;20022;-90
2023/12/11 05:11:28;;;;;;;12.60;1.90;;;7.60;99.90;;;;;;5014675;28;20025;-90
2023/12/11 05:13:54;;;;;;;15.30;2.20;;;7.60;99.90;;;;;;5015012;28;20023;-90
2023/12/11 05:16:20;;;;;;;10.57;1.85;;;7.60;99.90;;;;;;5014493;28;20026;-90
2023/12/11 05:18:46;;;;;;;13.02;1.90;;;7.60;99.90;;;;;;5014498;28;20018;-90
2023/12/11 05:21:11;;;;;;;12.43;1.63;;;7.60;99.90;;;;;;5014524;28;20028;-89
2023/12/11 05:23:38;;;;;;;11.20;2.00;;;7.60;99.90;;;;;;5014433;28;20045;-89
2023/12/11 05:26:03;;;;;;;4.45;1.23;;;7.60;99.90;;;;;;5014498;28;20022;-89
2023/12/11 05:28:29;;;;;;;5.55;1.40;;;7.60;99.90;;;;;;5014652;28;20014;-90
2023/12/11 05:30:55;;;;;;;11.60;1.98;;;7.60;99.90;;;;;;5015462;28;20024;-90
2023/12/11 05:33:20;;;;;;;11.13;2.47;;;7.70;99.90;;;;;;5014341;28;20048;-90
2023/12/11 05:35:46;;;;;;;8.50;1.58;;;7.70;99.90;;;;;;5013515;28;20056;-90
2023/12/11 05:38:12;;;;;;;7.47;1.40;;;7.70;99.90;;;;;;5014740;28;20029;-90
2023/12/11 05:40:38;;;;;;;10.52;1.92;;;7.70;99.90;;;;;;5014503;28;20063;-91
2023/12/11 05:43:03;;;;;;;11.52;2.00;;;7.70;99.90;;;;;;5014340;28;20156;-90
2023/12/11 05:45:29;;;;;;;5.03;1.75;;;7.70;99.90;;;;;;5014775;28;20022;-90
2023/12/11 05:47:55;;;;;;;10.02;1.25;;;7.70;99.90;;;;;;5014720;28;20025;-90
2023/12/11 05:50:20;;;;;;;9.95;1.63;;;7.70;99.90;;;;;;5014211;28;20025;-91
2023/12/11 05:52:46;;;;;;;8.45;1.65;;;7.70;99.90;;;;;;5013650;28;20026;-90
2023/12/11 05:55:12;;;;;;;5.75;1.40;;;7.70;99.90;;;;;;5014224;28;20120;-91
2023/12/11 05:57:38;;;;;;;6.97;1.40;;;7.70;99.90;;;;;;5013884;28;20026;-90
2023/12/11 06:00:04;;;;;;;14.45;1.50;;;7.70;99.90;;;;;;5014004;28;20072;-90
2023/12/11 06:02:30;;;;;;;8.18;1.20;;;7.70;99.90;;;;;;5031321;28;20033;-91
2023/12/11 06:04:56;;;;;;;11.38;1.80;;;7.70;99.90;;;;;;5013652;28;20022;-92
2023/12/11 06:07:21;;;;;;;5.43;1.00;;;7.70;99.90;;;;;;5013634;28;20075;-90
2023/12/11 06:09:47;;;;;;;5.72;1.20;;;7.70;99.90;;;;;;5013551;28;20026;-90
2023/12/11 06:12:13;;;;;;;5.20;1.15;;;7.70;99.90;;;;;;5013765;28;20025;-90
2023/12/11 06:14:42;;;;;;;5.47;1.10;;;7.80;99.90;;;;;;5014042;28;20061;-91
2023/12/11 06:17:08;;;;;;;3.00;1.00;;;7.80;99.90;;;;;;5014014;28;20030;-91
2023/12/11 06:19:34;;;;;;;4.50;1.40;;;7.80;99.90;;;;;;5035371;28;20038;-90
2023/12/11 06:22:00;;;;;;;28.83;2.85;;;7.80;99.90;;;;;;5025897;28;20142;-90
2023/12/11 06:24:32;;;;;;;5.18;1.40;;;7.80;99.90;;;;;;5024939;28;20021;-90
2023/12/11 06:26:58;;;;;;;7.63;1.20;;;7.80;99.90;;;;;;5022729;28;20108;-90
2023/12/11 06:29:23;;;;;;;6.07;1.20;;;7.80;99.90;;;;;;5021665;28;20083;-91
2023/12/11 06:31:49;;;;;;;9.70;1.77;;;7.80;99.90;;;;;;5016283;28;20102;-91
2023/12/11 06:34:15;;;;;;;10.93;1.98;;;7.80;99.90;;;;;;5014389;28;20448;-91
2023/12/11 06:36:41;;;;;;;7.13;1.50;;;7.80;99.90;;;;;;5013521;28;20804;-90
2023/12/11 06:39:06;;;;;;;11.95;1.73;;;7.80;99.90;;;;;;5013235;28;20021;-91
2023/12/11 06:41:35;;;;;;;5.18;1.20;;;7.80;99.90;;;;;;5013697;28;20064;-90
2023/12/11 06:44:01;;;;;;;9.73;1.60;;;7.80;99.90;;;;;;5013412;28;20018;-90
2023/12/11 06:46:29;;;;;;;11.90;2.65;;;7.80;99.90;;;;;;5012382;28;20029;-89
2023/12/11 06:48:56;;;;;;;10.18;1.30;;;7.80;99.90;;;;;;5016434;28;20028;-90
2023/12/11 06:51:24;;;;;;;9.05;1.23;;;7.80;99.90;;;;;;5017197;28;20026;-91
2023/12/11 06:53:51;;;;;;;12.32;3.15;;;7.70;99.90;;;;;;5017088;28;20033;-92
2023/12/11 06:56:18;;;;;;;5.78;1.35;;;7.70;99.90;;;;;;5017191;28;20091;-91
2023/12/11 06:58:44;;;;;;;3.15;1.05;;;7.70;99.90;;;;;;5016547;28;20044;-90
2023/12/11 07:01:11;;;;;;;11.80;1.33;;;7.70;99.90;;;;;;5017605;28;20022;-89
2023/12/11 07:03:38;;;;;;;11.52;1.42;;;7.70;99.90;;;;;;5017197;28;20029;-89
2023/12/11 07:06:04;;;;;;;13.13;1.30;;;7.70;99.90;;;;;;5015049;28;20410;-90
2023/12/11 07:08:30;;;;;;;5.05;1.42;;;7.70;99.90;;;;;;5014689;28;20101;-90
2023/12/11 07:10:56;;;;;;;6.47;1.33;;;7.70;99.90;;;;;;5014348;28;20139;-90
2023/12/11 07:13:22;;;;;;;8.05;1.13;;;7.60;99.90;;;;;;5015061;28;20017;-89
2023/12/11 07:15:48;;;;;;;8.30;1.25;;;7.60;99.90;;;;;;5017114;28;20033;-89
2023/12/11 07:18:14;;;;;;;9.05;2.30;;;7.60;99.90;;;;;;5016598;28;20513;-89
2023/12/11 07:20:42;;;;;;;4.13;0.95;;;7.60;99.90;;;;;;5015390;28;20040;-89
2023/12/11 07:23:10;;;;;;;7.53;2.08;;;7.60;99.90;;;;;;5019320;28;20028;-90
2023/12/11 07:25:39;;;;;;;10.73;1.48;;;7.60;99.90;;;;;;5014281;28;20021;-89
2023/12/11 07:28:05;;;;;;;12.52;1.58;;;7.50;99.90;;;;;;5014773;28;20498;-88
2023/12/11 07:30:31;;;;;;;7.88;1.55;;;7.50;99.90;;;;;;5013690;28;20033;-89
2023/12/11 07:32:57;;;;;;;8.73;1.58;;;7.50;99.90;;;;;;5014045;28;20021;-89
2023/12/11 07:35:24;;;;;;;9.23;2.63;;;7.50;99.90;;;;;;5015740;28;20395;-90
2023/12/11 07:37:51;;;;;;;6.45;0.90;;;7.50;99.90;;;;;;5015686;28;20041;-90
2023/12/11 07:40:17;;;;;;;7.63;1.10;;;7.50;99.90;;;;;;5016540;28;20208;-90
2023/12/11 07:42:43;;;;;;;8.50;1.58;;;7.50;99.90;;;;;;5016447;28;20022;-89
2023/12/11 07:45:09;;;;;;;5.47;1.10;;;7.50;99.90;;;;;;5016066;28;20061;-90
2023/12/11 07:47:35;;;;;;;5.38;1.13;;;7.50;99.90;;;;;;5013573;28;20049;-90
2023/12/11 07:50:02;;;;;;;5.78;1.20;;;7.50;99.90;;;;;;5013507;28;20029;-91
2023/12/11 07:52:31;;;;;;;4.88;1.20;;;7.50;99.90;;;;;;5012705;28;20577;-92
2023/12/11 07:54:58;;;;;;;4.72;1.33;;;7.40;99.90;;;;;;5015491;28;20029;-91
2023/12/11 07:57:25;;;;;;;7.47;0.98;;;7.40;99.90;;;;;;5032274;28;20095;-91
2023/12/11 07:59:51;;;;;;;6.53;1.95;;;7.50;99.90;;;;;;5016217;28;20045;-90
2023/12/11 08:02:17;;;;;;;8.82;1.45;;;7.50;99.90;;;;;;5016324;28;20091;-90
2023/12/11 08:04:42;;;;;;;4.75;0.75;;;7.50;99.90;;;;;;5016311;28;20589;-89
2023/12/11 08:07:09;;;;;;;6.28;1.40;;;7.50;99.90;;;;;;5015729;28;20025;-89
2023/12/11 08:09:39;;;;;;;8.93;1.73;;;7.50;99.90;;;;;;5015411;28;20124;-91
2023/12/11 08:12:05;;;;;;;5.22;1.98;;;7.60;99.90;;;;;;5010446;28;20045;-89
2023/12/11 08:14:31;;;;;;;8.65;1.67;;;7.60;99.90;;;;;;5010354;28;20085;-89
2023/12/11 08:16:58;;;;;;;7.60;1.55;;;7.60;99.90;;;;;;5013309;28;20027;-88
2023/12/11 08:19:23;;;;;;;6.93;1.50;;;7.60;99.90;;;;;;5012245;28;20180;-90
2023/12/11 08:21:49;;;;;;;8.30;1.63;;;7.60;99.90;;;;;;5016015;28;20495;-89
2023/12/11 08:24:16;;;;;;;7.68;1.45;;;7.60;99.90;;;;;;5015903;28;20022;-90
2023/12/11 08:26:43;;;;;;;9.98;1.80;;;7.60;99.90;;;;;;5014894;28;20533;-90
2023/12/11 08:29:09;;;;;;;8.52;1.75;;;7.50;99.90;;;;;;5014946;28;20021;-91
2023/12/11 08:31:35;;;;;;;8.77;1.90;;;7.50;99.90;;;;;;5013465;28;20119;-90
2023/12/11 08:34:00;;;;;;;8.40;1.77;;;7.50;99.90;;;;;;5014327;28;20076;-90
2023/12/11 08:36:26;;;;;;;9.77;2.65;;;7.50;99.90;;;;;;5012819;28;20103;-90
2023/12/11 08:38:52;;;;;;;7.93;1.65;;;7.50;99.90;;;;;;5013450;28;20502;-90
2023/12/11 08:41:18;;;;;;;8.07;1.85;;;7.50;99.90;;;;;;5013815;28;20186;-89
2023/12/11 08:43:44;;;;;;;9.68;1.60;;;7.50;99.90;;;;;;5015799;28;20041;-90
2023/12/11 08:46:12;;;;;;;6.63;2.10;;;7.40;99.90;;;;;;5018499;28;20116;-89
2023/12/11 08:48:38;;;;;;;6.10;1.80;;;7.50;99.90;;;;;;5017536;28;20032;-90
2023/12/11 08:51:05;;;;;;;5.45;1.70;;;7.40;99.90;;;;;;5014001;28;20479;-90
2023/12/11 08:53:31;;;;;;;11.43;2.55;;;7.40;99.90;;;;;;5014468;28;20029;-91
2023/12/11 08:55:57;;;;;;;6.47;2.08;;;7.40;99.90;;;;;;5013432;28;20491;-90
2023/12/11 08:58:24;;;;;;;9.40;2.30;;;7.40;99.90;;;;;;5015900;28;20026;-90
2023/12/11 09:00:50;;;;;;;6.90;2.10;;;7.40;99.90;;;;;;5012496;28;20033;-90
2023/12/11 09:03:16;;;;;;;13.07;3.00;;;7.50;99.90;;;;;;5033350;28;20028;-90
2023/12/11 09:05:41;;;;;;;8.80;2.10;;;7.50;99.90;;;;;;5032384;28;20025;-90
2023/12/11 09:08:10;;;;;;;8.75;2.67;;;7.50;99.90;;;;;;5024921;28;20027;-92
2023/12/11 09:10:36;;;;;;;7.70;2.45;;;7.50;99.90;;;;;;5017791;28;20068;-91
2023/12/11 09:13:06;;;;;;;14.48;3.20;;;7.50;99.90;;;;;;5015480;28;20041;-89
2023/12/11 09:15:32;;;;;;;11.60;2.22;;;7.50;99.90;;;;;;5012131;28;20047;-92
2023/12/11 09:18:03;;;;;;;14.75;4.75;;;7.50;99.90;;;;;;5013467;28;20108;-92
2023/12/11 09:22:54;;;;;;;8.68;2.35;;;7.50;99.90;;;;;;5058579;23;20054;-85
2023/12/11 09:25:21;;;;;;;11.77;3.55;;;7.50;99.90;;;;;;5011379;28;20384;-81
2023/12/11 09:27:46;;;;;;;8.48;2.88;;;7.50;99.90;;;;;;5011152;28;20546;-86
2023/12/11 09:30:12;;;;;;;8.52;2.50;;;7.50;99.90;;;;;;5027317;28;20026;-82
2023/12/11 09:32:41;;;;;;;5.82;1.77;;;7.50;99.90;;;;;;5013028;28;20129;-84
2023/12/11 09:35:08;;;;;;;6.28;1.95;;;7.50;99.90;;;;;;5011871;28;20033;-78
2023/12/11 09:37:34;;;;;;;7.80;1.90;;;7.50;99.90;;;;;;5013957;28;20030;-82
2023/12/11 09:39:59;;;;;;;13.73;2.42;;;7.50;99.90;;;;;;5013574;28;20029;-82
2023/12/11 09:42:26;;;;;;;9.82;3.00;;;7.50;99.90;;;;;;5013489;28;20037;-82
2023/12/11 09:44:52;;;;;;;11.85;2.25;;;7.50;99.90;;;;;;5013731;28;20032;-81
2023/12/11 09:47:31;;;;;;;13.40;3.15;;;7.50;99.90;;;;;;5014772;28;20053;-81
2023/12/11 09:49:57;;;;;;;14.52;2.70;;;7.60;99.90;;;;;;5030066;28;20484;-81
2023/12/11 09:52:23;;;;;;;18.35;2.80;;;7.70;99.90;;;;;;5016903;28;20034;-78
2023/12/11 09:54:49;;;;;;;7.47;1.88;;;7.70;99.90;;;;;;5027375;28;20026;-80
2023/12/11 09:57:16;;;;;;;10.02;2.35;;;7.70;99.90;;;;;;5023488;28;20045;-81
2023/12/11 09:59:43;;;;;;;10.57;2.83;;;7.70;99.90;;;;;;5024601;28;20025;-79
2023/12/11 10:02:15;;;;;;;8.60;2.35;;;7.80;99.90;;;;;;5014453;28;20026;-82
2023/12/11 10:05:00;;;;;;;13.20;2.95;;;7.80;99.90;;;;;;5031759;28;20060;-80
2023/12/11 10:07:26;;;;;;;8.40;1.50;;;7.90;99.90;;;;;;5031773;28;20041;-81
2023/12/11 10:09:52;;;;;;;4.10;1.65;;;7.90;99.90;;;;;;5031900;28;20030;-82
2023/12/11 10:12:17;;;;;;;5.40;1.30;;;7.90;99.90;;;;;;5013487;28;20393;-81
2023/12/11 10:14:58;;;;;;;2.97;1.98;;;7.90;99.90;;;;;;5013724;28;20033;-82
2023/12/11 10:17:24;;;;;;;17.35;1.70;;;8.00;99.90;;;;;;5014004;28;20053;-81
2023/12/11 10:19:50;;;;;;;6.63;1.65;;;8.00;99.90;;;;;;5012525;28;20076;-79
2023/12/11 10:22:32;;;;;;;5.72;1.20;;;8.10;99.90;;;;;;4999194;28;20045;-80
2023/12/11 10:24:58;;;;;;;6.68;1.70;;;8.20;99.90;;;;;;5011734;28;20104;-81
2023/12/11 10:27:26;;;;;;;7.43;1.15;;;8.30;99.90;;;;;;5035915;28;20053;-80
2023/12/11 10:30:06;;;;;;;5.18;1.33;;;8.40;99.90;;;;;;5017837;28;20039;-80
2023/12/11 10:32:32;;;;;;;1.85;0.85;;;8.40;99.90;;;;;;5035486;28;20083;-83
2023/12/11 10:34:58;;;;;;;2.40;1.02;;;8.50;99.90;;;;;;5017620;28;20045;-79
2023/12/11 10:37:32;;;;;;;3.83;1.17;;;8.50;99.90;;;;;;5017531;28;20528;-80
2023/12/11 10:39:58;;;;;;;3.33;1.25;;;8.40;99.90;;;;;;5017361;28;20038;-80
2023/12/11 10:42:25;;;;;;;3.70;1.20;;;8.40;99.90;;;;;;5017532;28;20396;-81
2023/12/11 10:44:51;;;;;;;3.95;0.88;;;8.40;99.90;;;;;;5017331;28;20489;-81
2023/12/11 10:47:18;;;;;;;4.05;1.13;;;8.40;99.90;;;;;;5017402;28;20033;-82
2023/12/11 10:49:44;;;;;;;4.25;1.10;;;8.40;99.90;;;;;;5035561;28;20040;-80
2023/12/11 10:52:12;;;;;;;3.38;1.13;;;8.50;99.90;;;;;;5035473;28;20053;-78
2023/12/11 10:54:38;;;;;;;1.33;0.82;;;8.40;99.90;;;;;;5016408;28;20122;-80
2023/12/11 10:57:08;;;;;;;3.42;0.77;;;8.40;99.90;;;;;;5034530;28;20026;-81
2023/12/11 10:59:35;;;;;;;3.13;0.70;;;8.40;99.90;;;;;;5017081;28;20389;-82
2023/12/11 11:02:02;;;;;;;1.58;0.70;;;8.40;99.90;;;;;;5017258;28;20029;-80
2023/12/11 11:04:34;;;;;;;3.47;0.80;;;8.30;99.90;;;;;;5017165;28;20116;-83
2023/12/11 11:07:08;;;;;;;1.65;0.95;;;8.30;99.90;;;;;;5017557;28;20048;-84
2023/12/11 11:10:03;;;;;;;2.20;1.10;;;8.30;99.90;;;;;;5015459;28;20104;-81
2023/12/11 11:12:37;;;;;;;3.10;1.10;;;8.30;99.90;;;;;;5007469;28;20120;-81
2023/12/11 11:15:05;;;;;;;1.63;0.75;;;8.30;99.90;;;;;;5002083;28;20484;-80
2023/12/11 11:17:58;;;;;;;5.18;0.90;;;8.30;99.90;;;;;;5023545;28;20036;-80
2023/12/11 11:20:25;;;;;;;2.63;0.80;;;8.30;99.90;;;;;;5010674;28;20048;-80
2023/12/11 11:23:17;;;;;;;1.95;0.77;;;8.30;99.90;;;;;;5013207;28;20049;-84
2023/12/11 11:25:50;;;;;;;1.05;0.30;;;8.20;99.90;;;;;;5034269;28;20491;-80
2023/12/11 11:28:35;;;;;;;0.22;0.20;;;8.30;99.90;;;;;;5016730;28;20080;-79
2023/12/11 11:31:04;;;;;;;0.88;0.52;;;8.30;99.90;;;;;;5016747;28;20029;-79
2023/12/11 11:33:50;;;;;;;2.05;0.45;;;8.30;99.90;;;;;;5015808;28;20029;-79
2023/12/11 11:36:21;;;;;;;0.57;0.50;;;8.30;99.90;;;;;;5016641;28;20043;-80
2023/12/11 11:38:57;;;;;;;1.80;0.70;;;8.30;99.90;;;;;;5016677;28;20100;-80
2023/12/11 11:41:28;;;;;;;2.08;0.80;;;8.30;99.90;;;;;;5034518;28;20033;-79
2023/12/11 11:44:04;;;;;;;3.53;0.98;;;8.30;99.90;;;;;;5034109;28;20063;-80
2023/12/11 11:46:55;;;;;;;2.42;1.30;;;8.30;99.90;;;;;;5034148;28;20025;-80
2023/12/11 11:49:35;;;;;;;3.47;1.58;;;8.30;99.90;;;;;;5033395;28;20490;-81
2023/12/11 11:52:09;;;;;;;1.45;1.17;;;8.30;99.90;;;;;;5016584;28;20124;-84
2023/12/11 11:54:42;;;;;;;2.17;1.55;;;8.30;99.90;;;;;;5033874;28;20363;-80
2023/12/11 11:57:08;;;;;;;1.63;1.13;;;8.30;99.90;;;;;;5016687;28;20068;-81
2023/12/11 11:59:44;;;;;;;2.88;1.48;;;8.40;99.90;;;;;;5034185;28;20029;-80
2023/12/11 12:02:10;;;;;;;1.48;0.60;;;8.40;99.90;;;;;;5016661;28;20030;-80
2023/12/11 12:04:35;;;;;;;1.65;0.93;;;8.30;99.90;;;;;;5033652;28;20223;-82
2023/12/11 12:07:03;;;;;;;0.77;0.57;;;8.30;99.90;;;;;;5015778;28;20044;-84
2023/12/11 12:09:34;;;;;;;6.32;1.88;;;8.30;99.90;;;;;;5015749;28;20036;-82
2023/12/11 12:12:00;;;;;;;1.13;0.75;;;8.30;99.90;;;;;;5016384;28;20034;-82
2023/12/11 12:14:26;;;;;;;3.63;1.60;;;8.30;99.90;;;;;;5014640;28;20057;-80
2023/12/11 12:16:52;;;;;;;3.30;1.05;;;8.30;99.90;;;;;;5022874;28;20034;-82
2023/12/11 12:19:35;;;;;;;7.93;2.22;;;8.30;99.90;;;;;;5014374;28;20521;-80
2023/12/11 12:22:02;;;;;;;3.15;1.52;;;8.40;99.90;;;;;;5015096;28;20057;-79
2023/12/11 12:24:28;;;;;;;4.38;1.83;;;8.50;99.90;;;;;;5028896;28;20056;-78
2023/12/11 12:27:00;;;;;;;6.43;2.13;;;8.50;99.90;;;;;;5010340;28;20061;-79
2023/12/11 12:29:28;;;;;;;4.80;1.95;;;8.60;99.90;;;;;;5026204;28;20056;-80
2023/12/11 12:31:54;;;;;;;1.95;1.20;;;8.60;99.90;;;;;;5015237;28;20075;-83
2023/12/11 12:34:21;;;;;;;5.50;1.60;;;8.70;99.90;;;;;;5014863;28;20088;-79
2023/12/11 12:36:47;;;;;;;4.35;1.85;;;8.70;99.90;;;;;;5032878;28;20032;-80
2023/12/11 12:39:17;;;;;;;4.03;1.40;;;8.80;99.90;;;;;;5032799;28;20021;-81
2023/12/11 12:41:43;;;;;;;6.55;2.20;;;8.70;99.90;;;;;;5033268;28;20037;-79
2023/12/11 12:44:08;;;;;;;4.63;1.50;;;8.70;99.90;;;;;;5015541;28;20030;-79
2023/12/11 12:46:42;;;;;;;4.47;1.70;;;8.60;99.90;;;;;;5032443;28;20036;-79
2023/12/11 12:49:13;;;;;;;7.90;2.28;;;8.60;99.90;;;;;;5033583;28;20084;-82
2023/12/11 12:51:53;;;;;;;3.35;1.58;;;8.60;99.90;;;;;;5015122;28;20057;-80
2023/12/11 12:54:20;;;;;;;5.00;1.85;;;8.50;99.90;;;;;;5033700;28;20140;-79
2023/12/11 12:56:58;;;;;;;5.82;2.20;;;8.50;99.90;;;;;;5033598;28;20033;-79
2023/12/11 12:59:26;;;;;;;4.75;2.92;;;8.40;99.90;;;;;;5015938;28;20440;-80